Time;durP1;ratioP1;P1;durP2;ratioP2;P2;SDS_P1;SDS_P2;PMS_P1;PMS_P2;Temp;Humidity;BMP_temperature;BMP_pressure;BME280_temperature;BME280_humidity;BME280_pressure;Samples;Min_cycle;Max_cycle;Signal;HPM_P1;HPM_P2
2022/01/06 00:01:43;;;;;;;31.93;5.90;;;4.50;99.90;;;;;;5056224;28;20092;-72
2022/01/06 00:04:09;;;;;;;29.47;3.87;;;4.50;99.90;;;;;;5054931;28;20100;-72
2022/01/06 00:06:41;;;;;;;26.03;5.27;;;4.50;99.90;;;;;;5055703;28;20127;-72
2022/01/06 00:09:08;;;;;;;27.48;4.70;;;4.50;99.90;;;;;;5056162;28;20095;-72
2022/01/06 00:11:34;;;;;;;31.42;4.60;;;4.50;99.90;;;;;;5055576;28;20106;-71
2022/01/06 00:14:08;;;;;;;30.73;4.22;;;4.60;99.90;;;;;;5055968;28;20124;-71
2022/01/06 00:16:43;;;;;;;21.52;4.25;;;4.60;99.90;;;;;;5055064;28;20060;-72
2022/01/06 00:24:23;;;;;;;26.30;5.15;;;4.70;99.90;;;;;;5053341;28;20053;-72
2022/01/06 00:26:50;;;;;;;22.13;3.75;;;4.70;99.90;;;;;;5054110;28;20098;-72
2022/01/06 00:29:16;;;;;;;23.25;4.15;;;4.70;99.90;;;;;;5053183;28;20084;-72
2022/01/06 00:31:42;;;;;;;18.65;3.33;;;4.60;99.90;;;;;;5053998;28;20492;-72
2022/01/06 00:34:10;;;;;;;21.57;4.27;;;4.60;99.90;;;;;;5052994;28;20098;-72
2022/01/06 00:36:42;;;;;;;26.42;3.63;;;4.60;99.90;;;;;;5053976;28;20049;-72
2022/01/06 00:39:09;;;;;;;19.30;3.70;;;4.60;99.90;;;;;;5054336;28;20056;-72
2022/01/06 00:41:37;;;;;;;20.02;3.53;;;4.50;99.90;;;;;;5053939;28;20110;-72
2022/01/06 00:44:05;;;;;;;19.55;3.47;;;4.60;99.90;;;;;;5054189;28;20111;-72
2022/01/06 00:46:31;;;;;;;25.48;3.70;;;4.50;99.90;;;;;;5053717;28;20056;-72
2022/01/06 00:48:57;;;;;;;24.25;3.42;;;4.50;99.90;;;;;;5054074;28;20049;-72
2022/01/06 00:51:23;;;;;;;25.87;5.50;;;4.50;99.90;;;;;;5053737;28;20049;-73
2022/01/06 00:53:49;;;;;;;18.98;3.97;;;4.40;99.90;;;;;;5054062;28;20068;-72
2022/01/06 00:56:14;;;;;;;31.02;4.68;;;4.50;99.90;;;;;;5052981;28;20473;-72
2022/01/06 00:58:40;;;;;;;21.47;3.90;;;4.40;99.90;;;;;;5053694;28;20052;-71
2022/01/06 01:01:06;;;;;;;21.03;3.07;;;4.40;99.90;;;;;;5053951;28;20552;-72
2022/01/06 01:03:32;;;;;;;26.83;4.87;;;4.40;99.90;;;;;;5053665;28;20102;-72
2022/01/06 01:05:58;;;;;;;18.07;3.40;;;4.30;99.90;;;;;;5053979;28;20128;-72
2022/01/06 01:08:25;;;;;;;18.17;4.03;;;4.40;99.90;;;;;;5053453;28;20131;-73
2022/01/06 01:10:53;;;;;;;20.52;3.47;;;4.40;99.90;;;;;;5053794;28;20053;-72
2022/01/06 01:13:27;;;;;;;20.75;2.92;;;4.30;99.90;;;;;;5053790;28;20103;-71
2022/01/06 01:18:08;;;;;;;20.50;3.17;;;4.30;99.90;;;;;;5110783;27;20450;-72
2022/01/06 01:20:34;;;;;;;20.10;3.47;;;4.30;99.90;;;;;;5110674;28;20052;-72
2022/01/06 01:23:00;;;;;;;17.43;3.33;;;4.30;99.90;;;;;;5111332;28;20040;-72
2022/01/06 01:25:25;;;;;;;14.87;2.80;;;4.20;99.90;;;;;;5110496;28;20127;-74
2022/01/06 01:27:55;;;;;;;13.67;2.60;;;4.30;99.90;;;;;;5110687;28;20040;-72
2022/01/06 01:30:28;;;;;;;21.60;3.33;;;4.30;99.90;;;;;;5109431;28;20055;-72
2022/01/06 01:32:54;;;;;;;17.67;2.83;;;4.30;99.90;;;;;;5110757;28;20047;-72
2022/01/06 01:35:21;;;;;;;30.05;3.78;;;4.30;99.90;;;;;;5110540;28;20090;-72
2022/01/06 01:37:46;;;;;;;19.20;3.20;;;4.30;99.90;;;;;;5110130;28;20040;-72
2022/01/06 01:40:12;;;;;;;20.57;3.23;;;4.20;99.90;;;;;;5110632;28;20043;-72
2022/01/06 01:42:40;;;;;;;20.10;3.83;;;4.20;99.90;;;;;;5110220;28;20083;-73
2022/01/06 01:45:08;;;;;;;22.17;3.55;;;4.20;99.90;;;;;;5110513;28;20830;-73
2022/01/06 01:47:41;;;;;;;19.17;2.97;;;4.20;99.90;;;;;;5109724;28;20484;-73
2022/01/06 01:50:13;;;;;;;19.75;2.50;;;4.20;99.90;;;;;;5110460;28;20052;-73
2022/01/06 01:52:45;;;;;;;18.77;3.40;;;4.20;99.90;;;;;;5108733;28;20051;-73
2022/01/06 01:55:15;;;;;;;22.70;4.25;;;4.20;99.90;;;;;;5110144;28;20040;-73
2022/01/06 01:57:42;;;;;;;17.83;3.40;;;4.20;99.90;;;;;;5108337;28;20115;-73
2022/01/06 02:00:10;;;;;;;17.10;2.88;;;4.20;99.90;;;;;;5092479;28;20079;-73
2022/01/06 02:02:36;;;;;;;15.90;2.67;;;4.10;99.90;;;;;;5109706;28;20083;-73
2022/01/06 02:05:03;;;;;;;19.47;3.50;;;4.10;99.90;;;;;;5110052;28;20086;-73
2022/01/06 02:07:29;;;;;;;24.80;4.25;;;4.10;99.90;;;;;;5108980;28;20056;-72
2022/01/06 02:09:55;;;;;;;21.03;3.37;;;4.00;99.90;;;;;;5091257;28;20089;-73
2022/01/06 02:12:26;;;;;;;16.57;2.83;;;4.00;99.90;;;;;;5109928;28;20039;-73
2022/01/06 02:14:52;;;;;;;20.70;3.15;;;4.00;99.90;;;;;;5109559;28;20055;-73
2022/01/06 02:17:17;;;;;;;23.00;3.90;;;4.00;99.90;;;;;;5108184;28;20052;-73
2022/01/06 02:20:04;;;;;;;19.37;3.40;;;4.00;99.90;;;;;;5108335;28;20048;-73
2022/01/06 02:22:30;;;;;;;23.02;3.17;;;4.00;99.90;;;;;;5109730;27;20079;-73
2022/01/06 02:24:56;;;;;;;21.97;3.10;;;4.00;99.90;;;;;;5109319;28;20223;-73
2022/01/06 02:27:22;;;;;;;21.27;3.10;;;4.00;99.90;;;;;;5106904;28;20054;-73
2022/01/06 02:29:49;;;;;;;20.50;3.17;;;3.90;99.90;;;;;;5095411;28;20040;-73
2022/01/06 02:32:17;;;;;;;16.17;3.40;;;3.90;99.90;;;;;;5096099;28;20040;-73
2022/01/06 02:34:44;;;;;;;20.33;3.63;;;3.90;99.90;;;;;;5095551;28;20040;-73
2022/01/06 02:37:11;;;;;;;17.42;2.70;;;3.80;99.90;;;;;;5128819;27;20476;-73
2022/01/06 02:39:37;;;;;;;16.35;2.85;;;3.80;99.90;;;;;;5095601;28;20097;-74
2022/01/06 02:42:03;;;;;;;16.57;3.03;;;3.80;99.90;;;;;;5061581;28;20044;-73
2022/01/06 02:44:29;;;;;;;17.17;2.97;;;3.80;99.90;;;;;;5094634;28;20572;-73
2022/01/06 02:46:55;;;;;;;17.47;2.90;;;3.60;99.90;;;;;;5095374;28;20048;-73
2022/01/06 02:49:21;;;;;;;15.80;2.53;;;3.70;99.90;;;;;;5095622;28;20131;-73
2022/01/06 02:51:47;;;;;;;16.03;2.90;;;3.60;99.90;;;;;;5095266;28;20036;-73
2022/01/06 02:54:14;;;;;;;13.17;2.67;;;3.60;99.90;;;;;;5095534;28;20131;-73
2022/01/06 02:56:42;;;;;;;19.40;3.28;;;3.50;99.90;;;;;;5095060;28;20044;-73
2022/01/06 02:59:08;;;;;;;15.38;2.40;;;3.50;99.90;;;;;;5095390;28;20400;-73
2022/01/06 03:01:43;;;;;;;11.15;2.22;;;3.50;99.90;;;;;;5095434;28;20048;-72
2022/01/06 03:04:11;;;;;;;14.48;2.83;;;3.50;99.90;;;;;;5095335;28;20040;-73
2022/01/06 03:06:38;;;;;;;20.05;2.90;;;3.50;99.90;;;;;;5093881;28;20040;-74
2022/01/06 03:09:04;;;;;;;19.10;3.17;;;3.40;99.90;;;;;;5094029;28;20047;-73
2022/01/06 03:11:33;;;;;;;15.00;2.40;;;3.40;99.90;;;;;;5095269;28;20056;-73
2022/01/06 03:13:59;;;;;;;14.95;2.85;;;3.40;99.90;;;;;;5094913;28;20055;-73
2022/01/06 03:16:26;;;;;;;17.58;3.00;;;3.40;99.90;;;;;;5094904;28;20051;-73
2022/01/06 03:18:52;;;;;;;20.63;3.00;;;3.40;99.90;;;;;;5094730;28;20145;-73
2022/01/06 03:21:18;;;;;;;14.40;3.30;;;3.40;99.90;;;;;;5094748;28;20377;-73
2022/01/06 03:23:44;;;;;;;14.87;3.03;;;3.30;99.90;;;;;;5094265;28;20089;-73
2022/01/06 03:26:09;;;;;;;17.67;2.80;;;3.40;99.90;;;;;;5094859;28;20097;-73
2022/01/06 03:28:35;;;;;;;15.33;3.37;;;3.30;99.90;;;;;;5094468;28;20060;-72
2022/01/06 03:31:01;;;;;;;12.73;3.00;;;3.40;99.90;;;;;;5094503;28;20051;-72
2022/01/06 03:33:27;;;;;;;16.50;2.70;;;3.30;99.90;;;;;;5093737;28;20047;-72
2022/01/06 03:35:52;;;;;;;19.87;4.27;;;3.30;99.90;;;;;;5093102;28;20403;-73
2022/01/06 03:38:18;;;;;;;16.80;2.40;;;3.30;99.90;;;;;;5094593;28;20044;-73
2022/01/06 03:40:44;;;;;;;15.20;2.30;;;3.30;99.90;;;;;;5093271;28;20047;-73
2022/01/06 03:43:10;;;;;;;17.73;2.83;;;3.20;99.90;;;;;;5076616;28;20052;-73
2022/01/06 03:45:36;;;;;;;19.53;3.43;;;3.20;99.90;;;;;;5094459;28;20044;-73
2022/01/06 03:48:03;;;;;;;19.30;3.13;;;3.20;99.90;;;;;;5094148;28;20102;-73
2022/01/06 03:50:30;;;;;;;16.98;2.85;;;3.10;99.90;;;;;;5094382;28;20115;-73
2022/01/06 03:52:56;;;;;;;25.23;3.50;;;3.10;99.90;;;;;;5094042;28;20051;-73
2022/01/06 03:55:22;;;;;;;21.95;3.50;;;3.10;99.90;;;;;;5094418;28;20397;-73
2022/01/06 03:57:49;;;;;;;13.15;2.92;;;3.00;99.90;;;;;;5093919;28;20126;-73
2022/01/06 04:00:18;;;;;;;18.90;3.17;;;2.90;99.90;;;;;;5094221;28;20058;-73
2022/01/06 04:02:44;;;;;;;14.88;2.42;;;3.00;99.90;;;;;;5093878;28;20050;-74
2022/01/06 04:05:10;;;;;;;18.38;3.75;;;3.00;99.90;;;;;;5094219;28;20385;-73
2022/01/06 04:07:37;;;;;;;16.17;2.90;;;2.90;99.90;;;;;;5094064;28;20491;-73
2022/01/06 04:10:04;;;;;;;18.50;2.83;;;2.90;99.90;;;;;;5093743;28;20044;-72
2022/01/06 04:12:33;;;;;;;16.85;2.70;;;2.90;99.90;;;;;;5126945;27;20052;-73
2022/01/06 04:14:59;;;;;;;17.45;2.90;;;2.90;99.90;;;;;;5093636;28;20052;-73
2022/01/06 04:17:25;;;;;;;13.07;2.33;;;2.90;99.90;;;;;;5092343;28;20177;-73
2022/01/06 04:19:50;;;;;;;14.80;2.70;;;2.90;99.90;;;;;;5093545;28;20139;-73
2022/01/06 04:22:17;;;;;;;16.03;2.73;;;2.90;99.90;;;;;;5092829;28;20040;-73
2022/01/06 04:24:44;;;;;;;11.95;2.33;;;2.90;99.90;;;;;;5092306;28;20480;-73
2022/01/06 04:27:10;;;;;;;16.67;2.42;;;2.90;99.90;;;;;;5092568;28;20047;-73
2022/01/06 04:29:36;;;;;;;12.37;2.73;;;2.80;99.90;;;;;;5075559;28;20572;-73
2022/01/06 04:32:02;;;;;;;15.80;2.60;;;2.80;99.90;;;;;;5093409;28;20043;-73
2022/01/06 04:34:28;;;;;;;15.50;2.60;;;2.80;99.90;;;;;;5093345;28;20488;-73
2022/01/06 04:36:56;;;;;;;15.90;3.03;;;2.80;99.90;;;;;;5093175;28;20050;-73
2022/01/06 04:39:22;;;;;;;14.70;2.50;;;2.80;99.90;;;;;;5093528;28;20096;-73
2022/01/06 04:41:48;;;;;;;14.07;2.40;;;2.70;99.90;;;;;;5093138;28;20055;-73
2022/01/06 04:44:14;;;;;;;13.33;2.37;;;2.70;99.90;;;;;;5093539;28;20039;-73
2022/01/06 04:46:40;;;;;;;16.97;2.43;;;2.70;99.90;;;;;;5092278;28;20503;-73
2022/01/06 04:49:06;;;;;;;13.00;2.38;;;2.60;99.90;;;;;;5092817;28;20500;-73
2022/01/06 04:51:32;;;;;;;15.33;2.80;;;2.60;99.90;;;;;;5092243;28;20051;-73
2022/01/06 04:53:58;;;;;;;21.13;2.63;;;2.60;99.90;;;;;;5092067;28;20047;-73
2022/01/06 04:56:23;;;;;;;15.20;2.45;;;2.50;99.90;;;;;;5092060;28;20426;-73
2022/01/06 04:58:49;;;;;;;14.03;2.53;;;2.50;99.90;;;;;;5092868;28;20036;-74
2022/01/06 05:01:15;;;;;;;16.03;3.17;;;2.40;99.90;;;;;;5093210;28;20040;-73
2022/01/06 05:03:41;;;;;;;19.48;2.95;;;2.30;99.90;;;;;;5092999;28;20567;-73
2022/01/06 05:06:07;;;;;;;19.92;3.30;;;2.20;99.90;;;;;;5092482;28;20549;-73
2022/01/06 05:08:33;;;;;;;16.17;3.00;;;2.20;99.90;;;;;;5075321;28;20074;-73
2022/01/06 05:10:59;;;;;;;22.97;3.47;;;2.10;99.90;;;;;;5092883;28;20507;-73
2022/01/06 05:13:25;;;;;;;15.88;2.42;;;2.10;99.90;;;;;;5075272;28;20048;-73
2022/01/06 05:15:51;;;;;;;17.33;3.23;;;2.00;99.90;;;;;;5092992;28;20476;-73
2022/01/06 05:18:16;;;;;;;14.13;2.80;;;2.00;99.90;;;;;;5092779;28;20044;-73
2022/01/06 05:20:43;;;;;;;15.37;2.60;;;2.10;99.90;;;;;;5092991;28;20047;-74
2022/01/06 05:23:13;;;;;;;19.58;3.80;;;2.10;99.90;;;;;;5091536;28;20055;-73
2022/01/06 05:25:39;;;;;;;24.95;4.47;;;2.10;99.90;;;;;;5093340;28;20108;-74
2022/01/06 05:28:05;;;;;;;18.63;3.53;;;2.20;99.90;;;;;;5092613;28;20040;-72
2022/01/06 05:30:31;;;;;;;18.35;3.22;;;2.00;99.90;;;;;;5092883;28;20048;-73
2022/01/06 05:32:57;;;;;;;16.20;2.80;;;2.10;99.90;;;;;;5092604;28;20036;-73
2022/01/06 05:35:23;;;;;;;13.82;2.70;;;2.10;99.90;;;;;;5092849;28;20040;-73
2022/01/06 05:37:49;;;;;;;18.80;2.70;;;2.10;99.90;;;;;;5091516;28;20044;-73
2022/01/06 05:40:15;;;;;;;15.33;3.23;;;2.10;99.90;;;;;;5092536;28;20044;-73
2022/01/06 05:42:41;;;;;;;15.75;2.78;;;2.20;99.90;;;;;;5091586;28;20043;-74
2022/01/06 05:45:08;;;;;;;19.58;2.85;;;2.20;99.90;;;;;;5091477;28;20135;-74
2022/01/06 05:47:35;;;;;;;14.80;3.22;;;2.30;99.90;;;;;;5092793;28;20084;-74
2022/01/06 05:50:02;;;;;;;15.48;3.67;;;2.20;99.90;;;;;;5092386;28;20051;-74
2022/01/06 05:52:28;;;;;;;23.05;3.33;;;2.30;99.90;;;;;;5092929;28;20391;-73
2022/01/06 05:54:53;;;;;;;18.98;2.88;;;2.20;99.90;;;;;;5092797;28;20044;-73
2022/01/06 05:57:19;;;;;;;25.23;3.70;;;2.10;99.90;;;;;;5074362;28;20048;-74
2022/01/06 05:59:45;;;;;;;15.25;2.95;;;2.00;99.90;;;;;;5092747;28;20135;-74
2022/01/06 06:02:11;;;;;;;16.10;2.57;;;1.90;99.90;;;;;;5092310;28;20131;-73
2022/01/06 06:04:37;;;;;;;23.17;3.77;;;1.90;99.90;;;;;;5096195;28;20131;-73
2022/01/06 06:07:03;;;;;;;14.07;2.50;;;2.00;99.90;;;;;;5096138;28;20559;-73
2022/01/06 06:09:29;;;;;;;16.77;2.97;;;2.00;99.90;;;;;;5095394;28;20097;-73
2022/01/06 06:11:55;;;;;;;16.67;3.13;;;2.00;99.90;;;;;;5096301;28;20278;-73
2022/01/06 06:14:21;;;;;;;14.47;3.20;;;2.00;99.90;;;;;;5095928;28;20094;-73
2022/01/06 06:16:46;;;;;;;22.10;2.97;;;2.00;99.90;;;;;;5094706;28;20399;-74
2022/01/06 06:19:12;;;;;;;16.43;3.10;;;2.10;99.90;;;;;;5095845;28;20048;-74
2022/01/06 06:21:38;;;;;;;13.37;2.90;;;2.00;99.90;;;;;;5096247;28;20044;-73
2022/01/06 06:24:04;;;;;;;13.90;2.87;;;2.10;99.90;;;;;;5096072;28;20188;-73
2022/01/06 06:26:30;;;;;;;19.75;3.15;;;2.00;99.90;;;;;;5096097;28;20040;-73
2022/01/06 06:28:55;;;;;;;17.13;2.93;;;1.90;99.90;;;;;;5095171;28;20048;-73
2022/01/06 06:31:21;;;;;;;17.13;3.20;;;1.90;99.90;;;;;;5095640;28;20071;-73
2022/01/06 06:33:46;;;;;;;16.10;2.77;;;2.00;99.90;;;;;;5096073;28;20428;-73
2022/01/06 06:36:12;;;;;;;12.93;3.00;;;1.90;99.90;;;;;;5095514;28;20051;-73
2022/01/06 06:38:38;;;;;;;16.43;3.03;;;1.90;99.90;;;;;;5095759;28;20074;-73
2022/01/06 06:41:04;;;;;;;15.20;3.20;;;1.70;99.90;;;;;;5095465;28;20055;-74
2022/01/06 06:43:30;;;;;;;14.90;3.00;;;1.80;99.90;;;;;;5095720;28;20055;-73
2022/01/06 06:45:55;;;;;;;12.40;2.40;;;1.90;99.90;;;;;;5095734;28;20216;-73
2022/01/06 06:48:22;;;;;;;17.20;2.97;;;1.80;99.90;;;;;;5095080;28;20048;-73
2022/01/06 06:50:48;;;;;;;18.67;3.22;;;1.80;99.90;;;;;;5095573;28;20403;-73
2022/01/06 06:53:14;;;;;;;15.77;2.92;;;1.80;99.90;;;;;;5095234;28;20044;-73
2022/01/06 06:55:39;;;;;;;15.77;3.20;;;1.80;99.90;;;;;;5077510;28;20071;-73
2022/01/06 06:58:05;;;;;;;17.93;2.67;;;1.80;99.90;;;;;;5095124;28;20202;-74
2022/01/06 07:00:31;;;;;;;17.03;3.30;;;1.70;99.90;;;;;;5095384;28;20192;-73
2022/01/06 07:02:57;;;;;;;19.73;3.20;;;1.70;99.90;;;;;;5095379;28;20561;-73
2022/01/06 07:05:23;;;;;;;20.67;3.33;;;1.70;99.90;;;;;;5095063;28;20047;-73
2022/01/06 07:07:48;;;;;;;15.30;3.83;;;1.80;99.90;;;;;;5095263;28;20036;-73
2022/01/06 07:10:14;;;;;;;23.70;4.27;;;1.80;99.90;;;;;;5093800;28;20086;-73
2022/01/06 07:12:42;;;;;;;12.50;2.90;;;1.80;99.90;;;;;;5094894;28;20058;-73
2022/01/06 07:15:09;;;;;;;20.90;3.75;;;1.80;99.90;;;;;;5094719;28;20052;-74
2022/01/06 07:17:35;;;;;;;16.90;3.45;;;1.70;99.90;;;;;;5094443;28;20138;-73
2022/01/06 07:20:01;;;;;;;19.87;4.23;;;1.80;99.90;;;;;;5094999;28;20127;-73
2022/01/06 07:22:27;;;;;;;15.00;3.40;;;1.80;99.90;;;;;;5094646;28;20106;-73
2022/01/06 07:24:53;;;;;;;19.93;4.00;;;1.80;99.90;;;;;;5094960;28;20048;-73
2022/01/06 07:27:18;;;;;;;16.77;4.60;;;1.80;99.90;;;;;;5094276;28;20121;-73
2022/01/06 07:29:44;;;;;;;20.80;6.23;;;1.80;99.90;;;;;;5093657;28;20048;-73
2022/01/06 07:32:10;;;;;;;20.67;4.80;;;1.70;99.90;;;;;;5094396;28;20044;-73
2022/01/06 07:34:36;;;;;;;17.50;5.93;;;1.70;99.90;;;;;;5094847;28;20048;-73
2022/01/06 07:37:02;;;;;;;23.30;6.23;;;1.80;99.90;;;;;;5094721;28;20103;-73
2022/01/06 07:39:28;;;;;;;28.40;8.02;;;1.70;99.90;;;;;;5093381;28;20899;-73
2022/01/06 07:41:54;;;;;;;22.30;6.30;;;1.70;99.90;;;;;;5093711;28;20036;-73
2022/01/06 07:44:19;;;;;;;21.20;6.00;;;1.80;99.90;;;;;;5127429;27;20074;-73
2022/01/06 07:46:47;;;;;;;23.10;6.50;;;1.80;99.90;;;;;;5093308;28;20383;-73
2022/01/06 07:49:13;;;;;;;25.33;7.10;;;1.80;99.90;;;;;;5094120;28;20119;-73
2022/01/06 07:51:39;;;;;;;21.63;5.75;;;1.70;99.90;;;;;;5094340;28;20530;-73
2022/01/06 07:54:04;;;;;;;21.17;5.63;;;1.70;99.90;;;;;;5094409;28;20126;-73
2022/01/06 07:56:30;;;;;;;16.20;5.60;;;1.70;99.90;;;;;;5093891;28;20058;-73
2022/01/06 07:58:57;;;;;;;18.47;5.07;;;1.80;99.90;;;;;;5094272;28;20051;-73
2022/01/06 08:01:23;;;;;;;20.73;4.75;;;1.80;99.90;;;;;;5093868;28;20081;-74
2022/01/06 08:03:49;;;;;;;26.98;6.07;;;1.70;99.90;;;;;;5094242;28;20052;-74
2022/01/06 08:06:15;;;;;;;24.77;7.37;;;1.80;99.90;;;;;;5093826;28;20040;-74
2022/01/06 08:08:42;;;;;;;21.83;5.93;;;1.80;99.90;;;;;;5094083;28;20035;-74
2022/01/06 08:11:08;;;;;;;21.65;5.90;;;1.80;99.90;;;;;;5093711;28;20510;-73
2022/01/06 08:13:35;;;;;;;24.02;5.03;;;1.80;99.90;;;;;;5093679;28;20089;-73
2022/01/06 08:16:00;;;;;;;24.00;5.50;;;1.90;99.90;;;;;;5092372;28;20052;-73
2022/01/06 08:18:26;;;;;;;22.70;4.87;;;1.80;99.90;;;;;;5092556;28;20101;-74
2022/01/06 08:20:52;;;;;;;20.70;4.47;;;1.90;99.90;;;;;;5093859;28;20048;-73
2022/01/06 08:23:18;;;;;;;21.93;4.93;;;1.80;99.90;;;;;;5092270;28;20421;-73
2022/01/06 08:25:43;;;;;;;24.87;4.73;;;1.80;99.90;;;;;;5093596;28;20080;-73
2022/01/06 08:28:10;;;;;;;17.23;3.90;;;1.90;99.90;;;;;;5093575;28;20036;-73
2022/01/06 08:30:36;;;;;;;24.60;4.53;;;1.90;99.90;;;;;;5093231;28;20040;-72
2022/01/06 08:33:02;;;;;;;20.17;4.90;;;1.90;99.90;;;;;;5093539;28;20051;-73
2022/01/06 08:35:28;;;;;;;28.57;5.50;;;1.90;99.90;;;;;;5093049;28;20090;-74
2022/01/06 08:37:54;;;;;;;21.85;4.70;;;1.90;99.90;;;;;;5092412;28;20673;-74
2022/01/06 08:40:20;;;;;;;26.23;5.53;;;1.90;99.90;;;;;;5093248;28;20056;-74
2022/01/06 08:42:46;;;;;;;20.90;5.13;;;1.90;99.90;;;;;;5092250;28;20135;-73
2022/01/06 08:45:12;;;;;;;21.13;5.37;;;2.00;99.90;;;;;;5075566;28;20063;-74
2022/01/06 08:47:39;;;;;;;20.13;5.47;;;2.10;99.90;;;;;;5093026;28;20040;-74
2022/01/06 08:50:05;;;;;;;24.00;5.93;;;2.10;99.90;;;;;;5093587;28;20055;-73
2022/01/06 08:52:33;;;;;;;35.85;6.15;;;2.20;99.90;;;;;;5092054;28;20076;-73
2022/01/06 08:54:59;;;;;;;27.85;7.03;;;2.30;99.90;;;;;;5093239;28;20048;-72
2022/01/06 08:57:24;;;;;;;28.67;5.40;;;2.30;99.90;;;;;;5092959;28;20039;-73
2022/01/06 08:59:50;;;;;;;26.37;5.27;;;2.40;99.90;;;;;;5093226;28;20109;-72
2022/01/06 09:02:16;;;;;;;18.57;5.33;;;2.50;99.90;;;;;;5092265;28;20048;-72
2022/01/06 09:04:42;;;;;;;24.03;6.13;;;2.50;99.90;;;;;;5092591;28;20052;-71
2022/01/06 09:07:07;;;;;;;25.40;5.70;;;2.50;99.90;;;;;;5093672;28;20047;-72
2022/01/06 09:09:33;;;;;;;24.30;4.83;;;2.50;99.90;;;;;;5092608;28;20102;-72
2022/01/06 09:11:59;;;;;;;27.97;5.53;;;2.50;99.90;;;;;;5093089;28;20048;-72
2022/01/06 09:14:24;;;;;;;16.10;4.57;;;2.60;99.90;;;;;;5091532;28;20043;-73
2022/01/06 09:16:53;;;;;;;21.93;4.53;;;2.50;99.90;;;;;;5092739;28;20120;-73
2022/01/06 09:19:19;;;;;;;22.70;4.43;;;2.60;99.90;;;;;;5093010;28;20063;-72
2022/01/06 09:21:44;;;;;;;18.40;4.68;;;2.60;99.90;;;;;;5092946;28;20044;-73
2022/01/06 09:24:10;;;;;;;24.20;4.47;;;2.60;99.90;;;;;;5092987;28;20040;-72
2022/01/06 09:26:37;;;;;;;30.73;6.50;;;2.70;99.90;;;;;;5092664;28;20040;-73
2022/01/06 09:29:05;;;;;;;21.02;4.35;;;2.70;99.90;;;;;;5092921;28;20051;-71
2022/01/06 09:31:31;;;;;;;24.50;4.15;;;2.70;99.90;;;;;;5074881;28;20116;-72
2022/01/06 09:33:57;;;;;;;22.77;4.38;;;2.80;99.90;;;;;;5092909;28;20051;-72
2022/01/06 09:36:23;;;;;;;21.80;4.80;;;2.80;99.90;;;;;;5092553;28;20048;-73
2022/01/06 09:38:48;;;;;;;24.83;4.67;;;2.80;99.90;;;;;;5095005;28;20048;-72
2022/01/06 09:41:14;;;;;;;22.80;4.10;;;2.90;99.90;;;;;;5095749;28;20055;-72
2022/01/06 09:43:41;;;;;;;19.93;4.23;;;2.90;99.90;;;;;;5096566;28;20040;-73
2022/01/06 09:46:08;;;;;;;21.15;3.78;;;2.90;99.90;;;;;;5097111;28;20153;-73
2022/01/06 09:48:39;;;;;;;23.88;4.65;;;2.90;99.90;;;;;;5096480;28;20059;-73
2022/01/06 09:51:05;;;;;;;30.13;5.75;;;2.90;99.90;;;;;;5096864;28;20059;-72
2022/01/06 09:53:31;;;;;;;27.42;5.97;;;3.00;99.90;;;;;;5096390;28;20078;-72
2022/01/06 09:55:57;;;;;;;25.67;4.85;;;3.00;99.90;;;;;;5096635;28;20131;-71
2022/01/06 09:58:28;;;;;;;18.90;4.23;;;3.00;99.90;;;;;;5096326;28;20135;-71
2022/01/06 10:00:55;;;;;;;25.92;5.90;;;3.00;99.90;;;;;;5095914;28;20407;-71
2022/01/06 10:03:56;;;;;;;20.67;4.30;;;3.00;99.90;;;;;;5096631;28;20129;-71
2022/01/06 10:06:24;;;;;;;23.00;4.18;;;3.00;99.90;;;;;;5073761;28;20047;-73
2022/01/06 10:08:50;;;;;;;27.55;4.50;;;3.10;99.90;;;;;;5087178;28;20048;-71
2022/01/06 10:11:23;;;;;;;27.55;5.03;;;3.10;99.90;;;;;;5095636;28;20139;-72
2022/01/06 10:14:04;;;;;;;26.15;4.82;;;3.10;99.90;;;;;;5096253;28;20048;-73
2022/01/06 10:16:31;;;;;;;20.20;4.07;;;3.20;99.90;;;;;;5096051;28;20067;-73
2022/01/06 10:19:10;;;;;;;27.42;4.60;;;3.20;99.90;;;;;;5095279;28;20052;-73
2022/01/06 10:21:41;;;;;;;26.50;5.00;;;3.20;99.90;;;;;;5096269;28;20146;-73
2022/01/06 10:24:10;;;;;;;26.25;4.25;;;3.30;99.90;;;;;;5096196;28;20131;-72
2022/01/06 10:26:37;;;;;;;28.42;4.65;;;3.30;99.90;;;;;;5095928;28;20040;-72
2022/01/06 10:29:07;;;;;;;22.80;4.53;;;3.30;99.90;;;;;;5095998;28;20048;-72
2022/01/06 10:31:33;;;;;;;22.75;3.67;;;3.40;99.90;;;;;;5095935;28;20044;-72
2022/01/06 10:34:05;;;;;;;19.77;4.05;;;3.40;99.90;;;;;;5095907;28;20051;-72
2022/01/06 10:36:32;;;;;;;15.93;3.08;;;3.50;99.90;;;;;;5095703;28;20048;-72
2022/01/06 10:39:05;;;;;;;23.35;3.63;;;3.50;99.90;;;;;;5095903;28;20040;-72
2022/01/06 10:41:32;;;;;;;20.23;3.78;;;3.60;99.90;;;;;;5095792;28;20119;-74
2022/01/06 10:44:00;;;;;;;23.38;3.63;;;3.60;99.90;;;;;;5094837;28;20055;-72
2022/01/06 10:46:37;;;;;;;14.48;3.63;;;3.70;99.90;;;;;;5077942;28;20082;-75
2022/01/06 10:49:12;;;;;;;21.08;3.47;;;3.70;99.90;;;;;;5095362;28;20048;-75
2022/01/06 10:51:43;;;;;;;22.50;3.05;;;3.80;99.90;;;;;;5095319;28;20052;-73
2022/01/06 10:54:22;;;;;;;24.13;3.63;;;3.80;99.90;;;;;;5095792;28;20092;-79
2022/01/06 10:56:59;;;;;;;18.15;3.25;;;3.80;99.90;;;;;;5093993;28;20044;-76
2022/01/06 10:59:29;;;;;;;21.45;3.25;;;3.90;99.90;;;;;;5095201;28;20050;-79
2022/01/06 11:01:55;;;;;;;20.20;3.30;;;3.90;99.90;;;;;;5094128;28;20040;-78
2022/01/06 11:04:20;;;;;;;16.08;2.78;;;3.90;99.90;;;;;;5095327;28;20048;-78
2022/01/06 11:06:47;;;;;;;21.10;5.20;;;3.90;99.90;;;;;;5094949;28;20093;-79
2022/01/06 11:09:13;;;;;;;19.60;3.13;;;4.00;99.90;;;;;;5095270;28;20094;-79
2022/01/06 11:14:15;;;;;;;23.10;3.60;;;4.00;99.90;;;;;;5095353;28;20051;-79
2022/01/06 11:16:42;;;;;;;19.33;3.78;;;4.00;99.90;;;;;;5093328;28;20063;-77
2022/01/06 11:19:12;;;;;;;21.98;4.28;;;4.10;99.90;;;;;;5095263;28;20051;-78
2022/01/06 11:22:00;;;;;;;18.35;3.42;;;4.10;99.90;;;;;;5093794;28;20383;-80
2022/01/06 11:24:28;;;;;;;22.13;3.45;;;4.20;99.90;;;;;;5095020;28;20128;-77
2022/01/06 11:27:01;;;;;;;22.35;4.22;;;4.20;99.90;;;;;;5094380;28;20400;-78
2022/01/06 11:29:34;;;;;;;15.88;3.03;;;4.30;99.90;;;;;;5094907;28;20082;-80
2022/01/06 11:32:02;;;;;;;19.20;2.83;;;4.30;99.90;;;;;;5093868;28;20051;-72
2022/01/06 11:34:35;;;;;;;20.25;3.55;;;4.30;99.90;;;;;;5094425;28;20495;-72
2022/01/06 11:37:13;;;;;;;17.33;2.60;;;4.30;99.90;;;;;;5094770;28;20032;-76
2022/01/06 11:39:39;;;;;;;19.65;3.70;;;4.40;99.90;;;;;;5094462;28;20040;-76
2022/01/06 11:42:31;;;;;;;19.55;2.92;;;4.50;99.90;;;;;;5094696;28;20040;-77
2022/01/06 11:44:58;;;;;;;19.63;2.85;;;4.40;99.90;;;;;;5092957;28;20063;-80
2022/01/06 11:47:39;;;;;;;18.60;2.92;;;4.50;99.90;;;;;;5094571;28;20047;-75
2022/01/06 11:50:26;;;;;;;14.00;2.83;;;4.50;99.90;;;;;;5094410;28;20048;-74
2022/01/06 11:52:57;;;;;;;17.63;3.08;;;4.60;99.90;;;;;;5093965;28;20044;-73
2022/01/06 11:55:28;;;;;;;18.88;2.38;;;4.60;99.90;;;;;;5094580;28;20377;-72
2022/01/06 11:57:54;;;;;;;13.77;2.38;;;4.50;99.90;;;;;;5092848;28;20128;-72
2022/01/06 12:00:23;;;;;;;16.77;3.38;;;4.50;99.90;;;;;;5093679;28;20450;-72
2022/01/06 12:03:10;;;;;;;18.08;3.22;;;4.50;99.90;;;;;;5093656;28;20083;-72
2022/01/06 12:05:52;;;;;;;20.50;2.60;;;4.50;99.90;;;;;;5094067;28;20162;-72
2022/01/06 12:08:20;;;;;;;15.32;2.63;;;4.50;99.90;;;;;;5094082;28;20040;-73
2022/01/06 12:10:50;;;;;;;14.85;2.78;;;4.60;99.90;;;;;;5093803;28;20051;-73
2022/01/06 12:13:18;;;;;;;18.23;2.78;;;4.60;99.90;;;;;;5093698;28;20064;-72
2022/01/06 12:15:53;;;;;;;17.63;2.75;;;4.60;99.90;;;;;;5093603;28;20044;-73
2022/01/06 12:18:20;;;;;;;;;;;4.60;99.90;;;;;;5094537;28;20114;-72
2022/01/06 12:20:48;;;;;;;16.00;3.10;;;4.70;99.90;;;;;;5093497;28;19924;-74
2022/01/06 12:23:15;;;;;;;17.65;3.25;;;4.60;99.90;;;;;;5092640;28;20135;-76
2022/01/06 12:25:41;;;;;;;14.65;2.08;;;4.70;99.90;;;;;;5092466;28;20051;-78
2022/01/06 12:28:09;;;;;;;20.70;3.10;;;4.70;99.90;;;;;;5093973;28;20048;-76
2022/01/06 12:30:39;;;;;;;15.63;2.63;;;4.70;99.90;;;;;;5093152;28;20276;-76
2022/01/06 12:33:07;;;;;;;24.02;2.60;;;4.80;99.90;;;;;;5087168;28;20487;-76
2022/01/06 12:35:47;;;;;;;14.05;2.85;;;4.80;99.90;;;;;;5092228;28;20399;-75
2022/01/06 12:38:14;;;;;;;19.30;3.90;;;4.80;99.90;;;;;;5093531;28;20051;-82
2022/01/06 12:40:42;;;;;;;14.30;2.70;;;4.90;99.90;;;;;;5088160;28;20420;-77
2022/01/06 12:43:17;;;;;;;17.30;3.13;;;4.90;99.90;;;;;;5080374;28;20048;-77
2022/01/06 12:45:44;;;;;;;17.17;2.75;;;4.90;99.90;;;;;;5087852;28;20052;-81
2022/01/06 12:48:13;;;;;;;20.17;3.10;;;5.00;99.90;;;;;;5088419;28;20040;-79
2022/01/06 12:50:48;;;;;;;13.98;2.20;;;5.00;99.90;;;;;;5087908;28;20118;-78
2022/01/06 12:53:31;;;;;;;15.02;2.67;;;5.10;99.90;;;;;;5085993;28;20040;-78
2022/01/06 12:55:58;;;;;;;20.80;3.00;;;5.10;99.90;;;;;;5067501;28;20535;-78
2022/01/06 12:58:30;;;;;;;11.60;1.88;;;5.10;99.90;;;;;;5065996;28;20052;-78
2022/01/06 13:00:58;;;;;;;21.17;3.15;;;5.10;99.90;;;;;;5086279;28;20051;-77